Filia Ariea — PIET — position and weather

sailwx.info

Track history (hours):
 
Tides and Currents Weather Stations Pressure Air Temp Water Temp Dewpoint Dewpoint Depression Visibility Wind Speed Wind Dir Waves Ship Positions

Filia Ariea

Last reported at 2017-Feb-20 16:31 UTC. Time now 2017-Feb-22 15:17 UTC.
Position N 59°06' W 004°33'.

Length 90 m; draft 3.9 m.

Type: Cargo ship. MMSI: 244662000.

Date/timePositionNaut miles runAvg speedWind from/ knotsBaromVisibWave heightAir tempDewpointWater temp
2017-Feb-20 16:31N 59°06' W 004°33'3 3.2
2017-Feb-20 15:33N 59°04' W 004°27'2 1.7
2017-Feb-20 14:33N 59°04' W 004°24'5 4.6
2017-Feb-20 13:33N 59°02' W 004°16'5 4.7
2017-Feb-20 12:33N 58°60' W 004°08'5 5.0
2017-Feb-20 11:33N 58°58' W 003°59'5 5.4
2017-Feb-20 10:33N 58°55' W 003°50'6 5.6
2017-Feb-20 09:33N 58°52' W 003°40'6 6.2
2017-Feb-20 08:33N 58°49' W 003°30'5 4.6
2017-Feb-20 07:32N 58°47' W 003°22'4 4.5
2017-Feb-20 06:33N 58°45' W 003°15'6 6.2
2017-Feb-20 05:33N 58°42' W 003°04'6 6.3
2017-Feb-20 04:33N 58°38' W 002°55'8 8.1
2017-Feb-20 03:33N 58°33' W 002°44'427 8.9
2017-Feb-18 03:18N 54°14' E 007°31'710.0
2017-Feb-18 02:33N 54°10' E 007°41'10 9.6
2017-Feb-18 01:30N 54°05' E 007°56'9 9.1
2017-Feb-18 00:33N 54°01' E 008°09'9 8.7
2017-Feb-17 23:33N 53°59' E 008°24'1211.9
2017-Feb-17 22:33N 53°54' E 008°42'1313.0
2017-Feb-17 21:33N 53°52' E 009°03'1111.4
2017-Feb-17 20:33N 53°49' E 009°22'1211.7
2017-Feb-17 19:33N 53°39' E 009°31'10 9.9
2017-Feb-17 18:33N 53°34' E 009°46'8 8.3
2017-Feb-17 17:33N 53°32' E 009°59'0 0.4
2017-Feb-17 16:32N 53°32' E 009°60'0 0.0
2017-Feb-17 15:31N 53°32' E 009°60'0 0.0
2017-Feb-17 14:31N 53°32' E 009°60'0 0.0
2017-Feb-17 13:33N 53°32' E 009°60'0 0.0
2017-Feb-17 12:33N 53°32' E 009°60'0 0.0
2017-Feb-17 11:33N 53°32' E 009°60'0 0.0
2017-Feb-17 10:32N 53°32' E 009°60'0 0.0
2017-Feb-17 09:32N 53°32' E 009°60'0 0.0
2017-Feb-17 08:31N 53°32' E 009°60'0 0.0
2017-Feb-17 07:31N 53°32' E 009°60'0 0.0
2017-Feb-17 06:33N 53°32' E 009°60'0 0.0
2017-Feb-17 05:33N 53°32' E 009°60'0 0.0
2017-Feb-17 04:33N 53°32' E 009°60'0 0.0
2017-Feb-17 03:32N 53°32' E 009°60'0 0.0
2017-Feb-17 02:32N 53°32' E 009°60'0 0.0
2017-Feb-17 01:31N 53°32' E 009°60'3 3.0
2017-Feb-17 00:33N 53°32' E 009°55'1010.2
2017-Feb-16 23:34N 53°35' E 009°38'1110.5
2017-Feb-16 22:33N 53°43' E 009°28'10 9.7
2017-Feb-16 21:33N 53°51' E 009°19'8 8.1
2017-Feb-16 20:34N 53°52' E 009°05'9 8.8
2017-Feb-16 19:33N 53°50' E 008°50'9 9.0
2017-Feb-16 18:33N 53°56' E 008°39'1110.0
2017-Feb-16 17:30N 53°59' E 008°22'63 8.6
2017-Feb-16 10:11N 53°30' E 006°48'3 4.4
2017-Feb-16 09:32N 53°27' E 006°50'0 0.0
2017-Feb-16 06:33N 53°27' E 006°50'2 2.2
2017-Feb-16 05:33N 53°29' E 006°49'19 9.2
2017-Feb-16 03:27N 53°37' E 006°19'3511.9
2017-Feb-16 00:33N 53°31' E 005°22'1312.7
2017-Feb-15 23:32N 53°25' E 005°03'1712.3
2017-Feb-15 22:11N 53°13' E 004°42'812.8
2017-Feb-15 21:33N 53°06' E 004°36'1313.1
2017-Feb-15 20:33N 52°54' E 004°27'1313.3
2017-Feb-15 19:33N 52°41' E 004°22'1313.1
2017-Feb-15 18:33N 52°28' E 004°21'1313.4
2017-Feb-15 17:33N 52°16' E 004°13'1413.6
2017-Feb-15 16:33N 52°03' E 004°05'9 9.0
2017-Feb-15 15:34N 51°56' E 004°13'7 7.4
2017-Feb-15 14:34N 51°54' E 004°25'0 0.0
2017-Feb-15 13:34N 51°54' E 004°25'0 0.0
2017-Feb-15 12:34N 51°54' E 004°25'0 0.0
2017-Feb-15 11:34N 51°54' E 004°25'0 0.0
2017-Feb-15 10:34N 51°54' E 004°25'0 0.0
2017-Feb-15 09:34N 51°54' E 004°25'0 0.0
2017-Feb-15 08:33N 51°54' E 004°25'0 0.0
2017-Feb-15 07:34N 51°54' E 004°25'6 6.1
2017-Feb-15 06:34N 51°55' E 004°15'1111.1
2017-Feb-15 05:33N 51°60' E 003°59'1313.5
2017-Feb-15 04:33N 51°57' E 003°38'1313.3
2017-Feb-15 03:33N 51°51' E 003°19'1211.8
2017-Feb-15 02:33N 51°39' E 003°21'1110.8
2017-Feb-15 01:32N 51°30' E 003°29'9 9.2
2017-Feb-15 00:33N 51°24' E 003°41'10 9.6
2017-Feb-14 23:33N 51°23' E 003°56'8 8.0
2017-Feb-14 22:33N 51°23' E 004°09'9 9.4
2017-Feb-14 21:33N 51°15' E 004°18'8 8.3
2017-Feb-14 20:34N 51°07' E 004°18'0 0.0
2017-Feb-14 05:34N 51°07' E 004°18'7 7.4
2017-Feb-14 04:33N 51°14' E 004°24'10 9.8
2017-Feb-14 03:33N 51°21' E 004°14'9 9.0
2017-Feb-14 02:33N 51°26' E 004°01'1110.6
2017-Feb-14 01:33N 51°22' E 003°46'1010.4
2017-Feb-14 00:33N 51°25' E 003°30'1110.9
2017-Feb-13 23:33N 51°23' E 003°13'10 9.6
2017-Feb-13 22:33N 51°21' E 002°58'9 8.8
2017-Feb-13 21:34N 51°21' E 002°44'9 8.5
2017-Feb-13 20:34N 51°22' E 002°30'8 7.8
2017-Feb-13 19:33N 51°18' E 002°19'9 8.5
2017-Feb-13 18:33N 51°14' E 002°07'9 9.1
2017-Feb-13 17:33N 51°10' E 001°54'10 9.6
2017-Feb-13 16:33N 51°03' E 001°42'1411.4
2017-Feb-13 15:22N 50°53' E 001°29'6410.8
2017-Feb-13 09:28N 50°22' E 000°01'65 6.5
2017-Feb-12 23:31N 50°31' W 001°40'9 9.3
2017-Feb-12 22:32N 50°32' W 001°54'51 2.0
2017-Feb-11 20:32N 50°05' W 003°01'1210.4
2017-Feb-11 19:26N 49°57' W 003°15'95 9.7
2017-Feb-11 09:33N 48°50' W 004°59'7 7.1
2017-Feb-11 08:33N 48°45' W 005°05'7 7.1
2017-Feb-11 07:33N 48°39' W 005°12'8 7.5
2017-Feb-11 06:33N 48°33' W 005°20'39 9.7
2017-Feb-11 02:28N 47°55' W 005°08'1111.5
2017-Feb-11 01:33N 47°46' W 004°60'  
Track history (hours):
 
Tides and Currents Weather Stations Pressure Air Temp Water Temp Dewpoint Dewpoint Depression Visibility Wind Speed Wind Dir Waves Ship Positions

Filia Ariea

Last reported at 2017-Feb-20 16:31 UTC. Time now 2017-Feb-22 15:17 UTC.
Position N 59°06' W 004°33'.

Length 90 m; draft 3.9 m.

Type: Cargo ship. MMSI: 244662000.

Date/timePositionNaut miles runAvg speedWind from/ knotsBaromVisibWave heightAir tempDewpointWater temp
2017-Feb-20 16:31N 59°06' W 004°33'3 3.2
2017-Feb-20 15:33N 59°04' W 004°27'2 1.7
2017-Feb-20 14:33N 59°04' W 004°24'5 4.6
2017-Feb-20 13:33N 59°02' W 004°16'5 4.7
2017-Feb-20 12:33N 58°60' W 004°08'5 5.0
2017-Feb-20 11:33N 58°58' W 003°59'5 5.4
2017-Feb-20 10:33N 58°55' W 003°50'6 5.6
2017-Feb-20 09:33N 58°52' W 003°40'6 6.2
2017-Feb-20 08:33N 58°49' W 003°30'5 4.6
2017-Feb-20 07:32N 58°47' W 003°22'4 4.5
2017-Feb-20 06:33N 58°45' W 003°15'6 6.2
2017-Feb-20 05:33N 58°42' W 003°04'6 6.3
2017-Feb-20 04:33N 58°38' W 002°55'8 8.1
2017-Feb-20 03:33N 58°33' W 002°44'427 8.9
2017-Feb-18 03:18N 54°14' E 007°31'710.0
2017-Feb-18 02:33N 54°10' E 007°41'10 9.6
2017-Feb-18 01:30N 54°05' E 007°56'9 9.1
2017-Feb-18 00:33N 54°01' E 008°09'9 8.7
2017-Feb-17 23:33N 53°59' E 008°24'1211.9
2017-Feb-17 22:33N 53°54' E 008°42'1313.0
2017-Feb-17 21:33N 53°52' E 009°03'1111.4
2017-Feb-17 20:33N 53°49' E 009°22'1211.7
2017-Feb-17 19:33N 53°39' E 009°31'10 9.9
2017-Feb-17 18:33N 53°34' E 009°46'8 8.3
2017-Feb-17 17:33N 53°32' E 009°59'0 0.4
2017-Feb-17 16:32N 53°32' E 009°60'0 0.0
2017-Feb-17 15:31N 53°32' E 009°60'0 0.0
2017-Feb-17 14:31N 53°32' E 009°60'0 0.0
2017-Feb-17 13:33N 53°32' E 009°60'0 0.0
2017-Feb-17 12:33N 53°32' E 009°60'0 0.0
2017-Feb-17 11:33N 53°32' E 009°60'0 0.0
2017-Feb-17 10:32N 53°32' E 009°60'0 0.0
2017-Feb-17 09:32N 53°32' E 009°60'0 0.0
2017-Feb-17 08:31N 53°32' E 009°60'0 0.0
2017-Feb-17 07:31N 53°32' E 009°60'0 0.0
2017-Feb-17 06:33N 53°32' E 009°60'0 0.0
2017-Feb-17 05:33N 53°32' E 009°60'0 0.0
2017-Feb-17 04:33N 53°32' E 009°60'0 0.0
2017-Feb-17 03:32N 53°32' E 009°60'0 0.0
2017-Feb-17 02:32N 53°32' E 009°60'0 0.0
2017-Feb-17 01:31N 53°32' E 009°60'3 3.0
2017-Feb-17 00:33N 53°32' E 009°55'1010.2
2017-Feb-16 23:34N 53°35' E 009°38'1110.5
2017-Feb-16 22:33N 53°43' E 009°28'10 9.7
2017-Feb-16 21:33N 53°51' E 009°19'8 8.1
2017-Feb-16 20:34N 53°52' E 009°05'9 8.8
2017-Feb-16 19:33N 53°50' E 008°50'9 9.0
2017-Feb-16 18:33N 53°56' E 008°39'1110.0
2017-Feb-16 17:30N 53°59' E 008°22'63 8.6
2017-Feb-16 10:11N 53°30' E 006°48'3 4.4
2017-Feb-16 09:32N 53°27' E 006°50'0 0.0
2017-Feb-16 06:33N 53°27' E 006°50'2 2.2
2017-Feb-16 05:33N 53°29' E 006°49'19 9.2
2017-Feb-16 03:27N 53°37' E 006°19'3511.9
2017-Feb-16 00:33N 53°31' E 005°22'1312.7
2017-Feb-15 23:32N 53°25' E 005°03'1712.3
2017-Feb-15 22:11N 53°13' E 004°42'812.8
2017-Feb-15 21:33N 53°06' E 004°36'1313.1
2017-Feb-15 20:33N 52°54' E 004°27'1313.3
2017-Feb-15 19:33N 52°41' E 004°22'1313.1
2017-Feb-15 18:33N 52°28' E 004°21'1313.4
2017-Feb-15 17:33N 52°16' E 004°13'1413.6
2017-Feb-15 16:33N 52°03' E 004°05'9 9.0
2017-Feb-15 15:34N 51°56' E 004°13'7 7.4
2017-Feb-15 14:34N 51°54' E 004°25'0 0.0
2017-Feb-15 13:34N 51°54' E 004°25'0 0.0
2017-Feb-15 12:34N 51°54' E 004°25'0 0.0
2017-Feb-15 11:34N 51°54' E 004°25'0 0.0
2017-Feb-15 10:34N 51°54' E 004°25'0 0.0
2017-Feb-15 09:34N 51°54' E 004°25'0 0.0
2017-Feb-15 08:33N 51°54' E 004°25'0 0.0
2017-Feb-15 07:34N 51°54' E 004°25'6 6.1
2017-Feb-15 06:34N 51°55' E 004°15'1111.1
2017-Feb-15 05:33N 51°60' E 003°59'1313.5
2017-Feb-15 04:33N 51°57' E 003°38'1313.3
2017-Feb-15 03:33N 51°51' E 003°19'1211.8
2017-Feb-15 02:33N 51°39' E 003°21'1110.8
2017-Feb-15 01:32N 51°30' E 003°29'9 9.2
2017-Feb-15 00:33N 51°24' E 003°41'10 9.6
2017-Feb-14 23:33N 51°23' E 003°56'8 8.0
2017-Feb-14 22:33N 51°23' E 004°09'9 9.4
2017-Feb-14 21:33N 51°15' E 004°18'8 8.3
2017-Feb-14 20:34N 51°07' E 004°18'0 0.0
2017-Feb-14 05:34N 51°07' E 004°18'7 7.4
2017-Feb-14 04:33N 51°14' E 004°24'10 9.8
2017-Feb-14 03:33N 51°21' E 004°14'9 9.0
2017-Feb-14 02:33N 51°26' E 004°01'1110.6
2017-Feb-14 01:33N 51°22' E 003°46'1010.4
2017-Feb-14 00:33N 51°25' E 003°30'1110.9
2017-Feb-13 23:33N 51°23' E 003°13'10 9.6
2017-Feb-13 22:33N 51°21' E 002°58'9 8.8
2017-Feb-13 21:34N 51°21' E 002°44'9 8.5
2017-Feb-13 20:34N 51°22' E 002°30'8 7.8
2017-Feb-13 19:33N 51°18' E 002°19'9 8.5
2017-Feb-13 18:33N 51°14' E 002°07'9 9.1
2017-Feb-13 17:33N 51°10' E 001°54'10 9.6
2017-Feb-13 16:33N 51°03' E 001°42'1411.4
2017-Feb-13 15:22N 50°53' E 001°29'6410.8
2017-Feb-13 09:28N 50°22' E 000°01'65 6.5
2017-Feb-12 23:31N 50°31' W 001°40'9 9.3
2017-Feb-12 22:32N 50°32' W 001°54'51 2.0
2017-Feb-11 20:32N 50°05' W 003°01'1210.4
2017-Feb-11 19:26N 49°57' W 003°15'95 9.7
2017-Feb-11 09:33N 48°50' W 004°59'7 7.1
2017-Feb-11 08:33N 48°45' W 005°05'7 7.1
2017-Feb-11 07:33N 48°39' W 005°12'8 7.5
2017-Feb-11 06:33N 48°33' W 005°20'39 9.7
2017-Feb-11 02:28N 47°55' W 005°08'1111.5
2017-Feb-11 01:33N 47°46' W 004°60'  

Dump ship's entire track history